Time;durP1;ratioP1;P1;durP2;ratioP2;P2;SDS_P1;SDS_P2;PMS_P1;PMS_P2;Temp;Humidity;BMP_temperature;BMP_pressure;BME280_temperature;BME280_humidity;BME280_pressure;Samples;Min_cycle;Max_cycle;Signal;HPM_P1;HPM_P2
2021/03/23 00:00:30;;;;;;;14.90;7.88;;;1.50;87.30;;;;;;5052226;28;20043;-78
2021/03/23 00:02:59;;;;;;;12.20;7.55;;;1.50;86.60;;;;;;5053519;28;20029;-79
2021/03/23 00:05:25;;;;;;;16.92;7.88;;;1.40;86.20;;;;;;5053340;28;20463;-79
2021/03/23 00:07:52;;;;;;;11.98;7.47;;;1.30;86.30;;;;;;5052286;28;20021;-78
2021/03/23 00:10:23;;;;;;;9.20;6.40;;;1.20;86.70;;;;;;5053643;28;20014;-78
2021/03/23 00:12:49;;;;;;;10.10;5.90;;;1.30;86.80;;;;;;5053114;28;20032;-78
2021/03/23 00:15:15;;;;;;;10.07;5.90;;;1.30;86.40;;;;;;5052148;28;20025;-77
2021/03/23 00:17:41;;;;;;;13.75;6.43;;;1.30;86.00;;;;;;5053401;28;20032;-78
2021/03/23 00:20:09;;;;;;;13.45;7.22;;;1.20;86.50;;;;;;5053218;28;20396;-78
2021/03/23 00:22:37;;;;;;;13.55;6.45;;;1.20;86.40;;;;;;5051989;28;20048;-78
2021/03/23 00:25:05;;;;;;;8.38;5.72;;;1.20;86.00;;;;;;5053244;28;20017;-78
2021/03/23 00:27:30;;;;;;;10.15;6.45;;;1.10;86.20;;;;;;5052057;28;20093;-78
2021/03/23 00:29:56;;;;;;;8.23;5.10;;;1.20;86.30;;;;;;5053378;28;20483;-78
2021/03/23 00:32:22;;;;;;;9.48;5.78;;;1.20;86.10;;;;;;5053325;28;20025;-78
2021/03/23 00:34:48;;;;;;;9.10;5.32;;;1.10;86.10;;;;;;5053626;28;20035;-78
2021/03/23 00:37:14;;;;;;;8.02;5.38;;;1.10;86.30;;;;;;5053232;28;20040;-78
2021/03/23 00:39:40;;;;;;;10.38;5.38;;;1.10;87.10;;;;;;5056323;28;20025;-78
2021/03/23 00:42:06;;;;;;;9.93;5.40;;;1.10;86.50;;;;;;5055743;28;20029;-78
2021/03/23 00:44:33;;;;;;;9.85;5.60;;;1.10;86.40;;;;;;5057426;28;20013;-78
2021/03/23 00:46:59;;;;;;;11.13;6.07;;;1.10;86.30;;;;;;5057032;28;20104;-78
2021/03/23 00:49:24;;;;;;;8.85;5.20;;;1.00;86.20;;;;;;5056875;28;20104;-78
2021/03/23 00:51:51;;;;;;;7.90;5.25;;;1.00;86.40;;;;;;5057216;28;20025;-78
2021/03/23 00:54:17;;;;;;;7.25;4.72;;;1.00;86.30;;;;;;5057062;28;20021;-78
2021/03/23 00:56:43;;;;;;;8.57;5.28;;;1.00;85.90;;;;;;5057155;28;20082;-78
2021/03/23 00:59:08;;;;;;;10.20;5.13;;;1.00;85.70;;;;;;5056893;28;20036;-78
2021/03/23 01:01:34;;;;;;;7.43;5.05;;;1.00;85.70;;;;;;5055344;28;20045;-78
2021/03/23 01:04:00;;;;;;;10.45;5.10;;;0.90;85.70;;;;;;5056862;28;20029;-78
2021/03/23 01:06:25;;;;;;;8.60;4.68;;;0.80;85.90;;;;;;5056724;28;20048;-78
2021/03/23 01:08:51;;;;;;;9.48;5.22;;;0.80;85.90;;;;;;5055351;28;20048;-78
2021/03/23 01:11:16;;;;;;;9.50;5.32;;;0.80;85.90;;;;;;5057024;28;20370;-78
2021/03/23 01:13:42;;;;;;;8.48;4.38;;;0.80;85.80;;;;;;5056410;28;20443;-78
2021/03/23 01:16:08;;;;;;;7.72;4.82;;;0.70;85.90;;;;;;5056540;28;20036;-78
2021/03/23 01:18:35;;;;;;;7.15;4.93;;;0.70;86.00;;;;;;5056365;28;20360;-78
2021/03/23 01:21:01;;;;;;;9.38;4.20;;;0.70;86.10;;;;;;5056364;28;20025;-78
2021/03/23 01:23:26;;;;;;;15.13;5.82;;;0.80;86.10;;;;;;5055721;28;20013;-79
2021/03/23 01:25:52;;;;;;;6.78;4.15;;;0.70;85.80;;;;;;5054240;28;20135;-78
2021/03/23 01:28:19;;;;;;;8.02;4.43;;;0.80;85.90;;;;;;5055592;28;20029;-78
2021/03/23 01:30:45;;;;;;;7.03;4.60;;;0.70;86.20;;;;;;5055049;28;20446;-78
2021/03/23 01:33:11;;;;;;;9.15;5.22;;;0.80;86.30;;;;;;5056252;28;20112;-78
2021/03/23 01:35:36;;;;;;;8.07;3.95;;;0.80;86.60;;;;;;5055066;28;20029;-78
2021/03/23 01:38:02;;;;;;;7.03;4.50;;;0.80;86.30;;;;;;5056029;28;20025;-79
2021/03/23 01:40:29;;;;;;;6.72;4.43;;;0.80;86.80;;;;;;5056281;28;20025;-78
2021/03/23 01:43:01;;;;;;;6.28;4.30;;;0.80;86.70;;;;;;5054642;28;20059;-78
2021/03/23 01:45:38;;;;;;;8.38;4.80;;;0.80;87.00;;;;;;5055775;28;20025;-78
2021/03/23 01:48:22;;;;;;;7.85;4.45;;;0.70;87.50;;;;;;5056101;28;20115;-79
2021/03/23 01:51:07;;;;;;;9.15;4.43;;;0.80;87.70;;;;;;5055258;28;20098;-78
2021/03/23 01:53:47;;;;;;;7.13;4.20;;;0.80;87.30;;;;;;5055605;28;20021;-78
2021/03/23 01:56:14;;;;;;;10.32;5.00;;;0.80;87.40;;;;;;5056024;28;20025;-78
2021/03/23 01:58:47;;;;;;;6.85;4.57;;;0.80;87.50;;;;;;5055316;28;20028;-78
2021/03/23 02:01:16;;;;;;;6.40;3.95;;;0.80;87.40;;;;;;5055453;28;20045;-78
2021/03/23 02:03:42;;;;;;;6.70;4.03;;;0.80;87.80;;;;;;5054259;28;20055;-78
2021/03/23 02:06:27;;;;;;;6.05;3.65;;;0.80;87.40;;;;;;5055316;28;20079;-78
2021/03/23 02:08:55;;;;;;;6.93;4.25;;;0.80;87.30;;;;;;5055482;28;20017;-78
2021/03/23 02:11:21;;;;;;;7.55;4.00;;;0.80;87.50;;;;;;5055364;28;20017;-78
2021/03/23 02:13:47;;;;;;;8.70;4.68;;;0.80;87.50;;;;;;5055270;28;20482;-78
2021/03/23 02:16:13;;;;;;;6.85;4.10;;;0.80;87.30;;;;;;5055286;28;20082;-78
2021/03/23 02:18:39;;;;;;;6.88;3.80;;;0.80;87.30;;;;;;5055462;28;20029;-78
2021/03/23 02:21:12;;;;;;;7.18;4.22;;;0.70;87.10;;;;;;5055215;28;20060;-78
2021/03/23 02:23:39;;;;;;;8.70;4.03;;;0.80;87.30;;;;;;5055043;28;20025;-78
2021/03/23 02:26:07;;;;;;;6.90;3.70;;;0.60;87.10;;;;;;5053591;28;20488;-78
2021/03/23 02:28:59;;;;;;;11.75;4.65;;;0.70;87.00;;;;;;5053762;28;20021;-78
2021/03/23 02:31:30;;;;;;;7.70;3.95;;;0.60;87.20;;;;;;5053577;28;20048;-78
2021/03/23 02:33:56;;;;;;;;;;;0.70;87.10;;;;;;5055509;28;20025;-78
2021/03/23 02:36:22;;;;;;;6.60;4.13;;;0.70;86.90;;;;;;5054887;28;20354;-78
2021/03/23 02:38:47;;;;;;;5.10;3.58;;;0.70;87.10;;;;;;5054851;28;20032;-78
2021/03/23 02:41:13;;;;;;;7.90;4.40;;;0.70;87.10;;;;;;5053421;28;20031;-78
2021/03/23 02:43:39;;;;;;;10.00;4.30;;;0.70;87.10;;;;;;5053666;28;20031;-78
2021/03/23 02:46:05;;;;;;;9.30;3.58;;;0.70;87.10;;;;;;5054785;28;20423;-78
2021/03/23 02:48:30;;;;;;;6.30;3.63;;;0.70;86.90;;;;;;5054727;28;20027;-78
2021/03/23 02:50:56;;;;;;;7.60;3.88;;;0.70;86.80;;;;;;5053430;28;20017;-78
2021/03/23 02:53:22;;;;;;;7.75;4.15;;;0.70;86.70;;;;;;5053180;28;20056;-78
2021/03/23 02:55:48;;;;;;;6.00;3.60;;;0.70;86.50;;;;;;5053329;28;20038;-78
2021/03/23 02:58:15;;;;;;;5.63;3.58;;;0.70;87.10;;;;;;5054457;28;20021;-78
2021/03/23 03:00:40;;;;;;;7.57;4.18;;;0.70;86.60;;;;;;5052803;28;20128;-78
2021/03/23 03:03:06;;;;;;;10.05;3.83;;;0.60;86.30;;;;;;5053460;28;20116;-79
2021/03/23 03:05:32;;;;;;;8.88;3.78;;;0.60;86.50;;;;;;5054238;28;20029;-78
2021/03/23 03:07:59;;;;;;;7.93;4.15;;;0.50;86.50;;;;;;5054261;28;20025;-78
2021/03/23 03:10:25;;;;;;;5.60;3.70;;;0.40;86.80;;;;;;5053389;28;20021;-78
2021/03/23 03:12:51;;;;;;;5.47;3.55;;;0.50;86.50;;;;;;5052900;28;20492;-79
2021/03/23 03:15:17;;;;;;;6.47;3.60;;;0.40;86.80;;;;;;5054098;28;20099;-78
2021/03/23 03:17:42;;;;;;;7.22;3.08;;;0.40;86.50;;;;;;5053113;28;20032;-78
2021/03/23 03:20:10;;;;;;;5.60;3.33;;;0.40;86.70;;;;;;5052772;28;20033;-78
2021/03/23 03:22:36;;;;;;;6.93;3.17;;;0.40;86.70;;;;;;5052775;28;20112;-78
2021/03/23 03:25:05;;;;;;;5.32;3.45;;;0.40;86.40;;;;;;5053980;28;20102;-78
2021/03/23 03:27:30;;;;;;;7.20;4.20;;;0.40;86.20;;;;;;5052744;28;20029;-78
2021/03/23 03:29:56;;;;;;;7.68;3.80;;;0.40;86.00;;;;;;5052443;28;20382;-78
2021/03/23 03:32:21;;;;;;;5.47;3.20;;;0.40;86.40;;;;;;5053955;28;20479;-78
2021/03/23 03:34:47;;;;;;;3.47;3.00;;;0.40;86.20;;;;;;5053876;28;20037;-78
2021/03/23 03:37:13;;;;;;;5.40;3.15;;;0.40;85.80;;;;;;5053695;28;20033;-78
2021/03/23 03:39:38;;;;;;;7.20;3.70;;;0.40;86.00;;;;;;5052330;28;20025;-78
2021/03/23 03:42:05;;;;;;;7.57;3.60;;;0.30;86.00;;;;;;5053546;28;20086;-78
2021/03/23 03:44:30;;;;;;;6.03;3.03;;;0.30;85.90;;;;;;5052401;28;20052;-78
2021/03/23 03:46:56;;;;;;;8.77;3.00;;;0.30;85.60;;;;;;5053674;28;20053;-78
2021/03/23 03:49:21;;;;;;;6.10;3.35;;;0.30;85.90;;;;;;5052291;28;20025;-78
2021/03/23 03:51:47;;;;;;;8.63;3.05;;;0.10;85.60;;;;;;5053410;28;20029;-79
2021/03/23 03:54:13;;;;;;;7.28;3.03;;;0.10;85.60;;;;;;5053914;28;20029;-77
2021/03/23 03:56:38;;;;;;;7.70;3.55;;;0.00;85.50;;;;;;5052299;28;20040;-78
2021/03/23 03:59:04;;;;;;;5.20;3.05;;;0.00;84.80;;;;;;5051920;28;20025;-77
2021/03/23 04:01:30;;;;;;;6.20;3.47;;;-0.10;85.50;;;;;;5053396;28;20045;-77
2021/03/23 04:03:55;;;;;;;6.78;2.72;;;-0.10;85.30;;;;;;5053503;28;20029;-77
2021/03/23 04:06:22;;;;;;;5.03;2.90;;;0.00;85.40;;;;;;5053214;28;20022;-78
2021/03/23 04:08:47;;;;;;;7.03;3.13;;;0.10;85.10;;;;;;5053607;28;20028;-78
2021/03/23 04:11:13;;;;;;;5.32;2.72;;;0.10;84.90;;;;;;5052226;28;20029;-77
2021/03/23 04:13:39;;;;;;;5.72;3.03;;;0.10;84.60;;;;;;5051803;28;20125;-78
2021/03/23 04:16:06;;;;;;;6.43;3.30;;;0.00;84.70;;;;;;5052111;28;20017;-78
2021/03/23 04:18:32;;;;;;;6.20;2.90;;;0.00;84.50;;;;;;5052028;28;20025;-77
2021/03/23 04:21:00;;;;;;;6.47;3.25;;;0.00;84.30;;;;;;5053342;28;20028;-76
2021/03/23 04:23:38;;;;;;;7.47;3.25;;;0.00;84.50;;;;;;5053291;28;20037;-76
2021/03/23 04:26:06;;;;;;;7.00;3.63;;;0.00;84.40;;;;;;5053284;28;20395;-76
2021/03/23 04:28:32;;;;;;;9.38;4.10;;;0.00;84.20;;;;;;5051434;28;20475;-76
2021/03/23 04:30:58;;;;;;;8.02;3.83;;;-0.10;84.20;;;;;;5053019;28;20025;-76
2021/03/23 04:33:27;;;;;;;6.82;3.45;;;-0.20;83.90;;;;;;5053094;28;20581;-76
2021/03/23 04:35:57;;;;;;;7.22;4.10;;;-0.20;84.40;;;;;;5052884;28;20021;-76
2021/03/23 04:38:30;;;;;;;6.53;3.22;;;-0.20;84.20;;;;;;5052914;28;20021;-77
2021/03/23 04:40:57;;;;;;;9.98;3.72;;;-0.20;84.60;;;;;;5053184;28;20025;-77
2021/03/23 04:43:35;;;;;;;7.72;3.60;;;-0.10;84.20;;;;;;5035600;28;20026;-77
2021/03/23 04:46:01;;;;;;;6.70;3.35;;;-0.10;84.30;;;;;;5050523;28;20021;-77
2021/03/23 04:48:27;;;;;;;5.00;2.95;;;-0.10;83.20;;;;;;5052923;28;20560;-77
2021/03/23 04:50:53;;;;;;;12.20;4.18;;;-0.10;83.50;;;;;;5052710;28;20056;-77
2021/03/23 04:53:26;;;;;;;10.75;4.75;;;0.00;82.80;;;;;;5053028;28;20395;-76
2021/03/23 04:55:53;;;;;;;9.25;4.45;;;0.00;82.30;;;;;;5051609;28;20029;-76
2021/03/23 04:58:19;;;;;;;6.20;3.60;;;0.00;82.30;;;;;;5053120;28;20536;-76
2021/03/23 05:00:45;;;;;;;8.73;4.05;;;0.00;82.70;;;;;;5053068;28;20131;-76
2021/03/23 05:03:15;;;;;;;9.00;3.80;;;0.10;82.60;;;;;;5053339;28;20116;-76
2021/03/23 05:05:40;;;;;;;7.05;3.33;;;0.10;81.90;;;;;;5053065;28;20021;-76
2021/03/23 05:08:06;;;;;;;14.23;5.07;;;0.20;81.50;;;;;;5052919;28;20029;-76
2021/03/23 05:10:32;;;;;;;8.80;4.25;;;0.20;80.60;;;;;;5052938;28;20418;-76
2021/03/23 05:12:57;;;;;;;8.23;3.55;;;0.20;80.60;;;;;;5052852;28;20040;-76
2021/03/23 05:15:23;;;;;;;7.53;3.38;;;0.20;80.80;;;;;;5051808;28;20490;-76
2021/03/23 05:17:49;;;;;;;6.32;3.42;;;0.20;79.70;;;;;;5052722;28;20029;-75
2021/03/23 05:20:15;;;;;;;10.00;4.43;;;0.30;80.40;;;;;;5052825;28;20052;-76
2021/03/23 05:22:41;;;;;;;8.77;4.68;;;0.30;80.10;;;;;;5051414;28;20063;-76
2021/03/23 05:25:07;;;;;;;9.35;4.70;;;0.40;80.20;;;;;;5053355;28;20048;-76
2021/03/23 05:27:33;;;;;;;4.97;2.97;;;0.40;79.70;;;;;;5056914;28;20025;-75
2021/03/23 05:29:58;;;;;;;11.85;4.32;;;0.40;79.60;;;;;;5054927;28;20017;-76
2021/03/23 05:32:24;;;;;;;7.70;3.17;;;0.50;79.30;;;;;;5056262;28;20091;-76
2021/03/23 05:34:50;;;;;;;6.90;3.53;;;0.40;78.80;;;;;;5056014;28;20053;-76
2021/03/23 05:37:15;;;;;;;6.47;2.70;;;0.50;78.30;;;;;;5056284;28;20025;-76
2021/03/23 05:39:41;;;;;;;4.78;2.92;;;0.50;79.10;;;;;;5055871;28;20523;-77
2021/03/23 05:42:28;;;;;;;6.20;2.72;;;0.50;78.00;;;;;;5055103;28;20041;-76
2021/03/23 05:45:13;;;;;;;4.88;2.60;;;0.50;77.60;;;;;;5054782;28;20025;-76
2021/03/23 05:47:43;;;;;;;9.93;3.35;;;0.60;77.70;;;;;;5055975;28;20036;-77
2021/03/23 05:50:23;;;;;;;9.00;2.55;;;0.60;77.20;;;;;;5056013;28;20017;-76
2021/03/23 05:53:10;;;;;;;6.03;2.95;;;0.60;77.00;;;;;;5055630;28;20886;-75
2021/03/23 05:55:42;;;;;;;6.40;3.78;;;0.70;77.10;;;;;;5055678;28;20033;-77
2021/03/23 05:58:20;;;;;;;5.50;3.03;;;0.70;77.20;;;;;;5054469;28;20036;-77
2021/03/23 06:01:10;;;;;;;8.38;3.20;;;0.70;76.00;;;;;;5054246;28;20094;-75
2021/03/23 06:03:47;;;;;;;14.73;6.07;;;0.80;76.70;;;;;;5055802;28;20059;-75
2021/03/23 06:06:19;;;;;;;7.88;3.17;;;0.90;76.70;;;;;;5054315;28;20390;-77
2021/03/23 06:08:49;;;;;;;6.18;2.78;;;0.90;76.00;;;;;;5055644;28;20013;-76
2021/03/23 06:11:17;;;;;;;3.92;2.83;;;0.90;75.50;;;;;;5054353;28;20471;-77
2021/03/23 06:14:12;;;;;;;4.32;2.40;;;1.00;76.20;;;;;;5055635;28;20017;-78
2021/03/23 06:17:03;;;;;;;7.75;3.00;;;1.10;75.20;;;;;;5054050;28;20032;-76
2021/03/23 06:19:54;;;;;;;7.38;4.47;;;1.10;75.50;;;;;;5054238;28;20028;-77
